Forseti — V2PV4 — position and weather

sailwx.info

Track history (hours):
 
Tides and Currents Weather Stations Pressure Air Temp Water Temp Dewpoint Dewpoint Depression Visibility Wind Speed Wind Dir Waves Ship Positions

Forseti

Last reported at 2017-Jan-17 20:34 UTC. Time now 2017-Jan-17 21:29 UTC.
Position N 59°53' E 030°12'.

Length 85 m; draft 5.8 m.

Type: Cargo ship. MMSI: 304010297.

Date/timePositionNaut miles runAvg speedWind from/ knotsBaromVisibWave heightAir tempDewpointWater temp
2017-Jan-17 20:34N 59°53' E 030°12'0 0.0
2017-Jan-17 19:33N 59°53' E 030°12'0 0.0
2017-Jan-17 18:34N 59°53' E 030°13'3 3.5
2017-Jan-17 17:33N 59°54' E 030°06'9 8.8
2017-Jan-17 16:34N 59°57' E 029°50'  
2017-Jan-14 04:32N 60°02' E 029°08'7 7.1
2017-Jan-14 03:33N 60°01' E 028°54'34 8.4
2017-Jan-13 23:33N 60°10' E 027°49'9 8.6
2017-Jan-13 22:33N 60°06' E 027°33'26 8.5
2017-Jan-13 19:33N 59°59' E 026°44'98 8.9
2017-Jan-13 08:31N 59°30' E 023°38'378 9.9
2017-Jan-11 18:12N 55°24' E 014°44'7 9.9
2017-Jan-11 17:33N 55°20' E 014°35'10 9.7
2017-Jan-11 16:32N 55°12' E 014°24'9 9.4
2017-Jan-11 15:33N 55°05' E 014°14'13 8.9
2017-Jan-11 14:03N 54°57' E 013°56'4 8.9
2017-Jan-11 13:33N 54°56' E 013°48'59 9.5
2017-Jan-11 07:17N 54°29' E 012°16'7 9.8
2017-Jan-11 06:33N 54°24' E 012°08'21 9.9
2017-Jan-11 04:23N 54°28' E 011°32'810.0
2017-Jan-11 03:34N 54°32' E 011°19'10 9.8
2017-Jan-11 02:33N 54°35' E 011°03'1010.0
2017-Jan-11 01:34N 54°40' E 010°48'1010.4
2017-Jan-11 00:33N 54°45' E 010°32'  
Track history (hours):
 
Tides and Currents Weather Stations Pressure Air Temp Water Temp Dewpoint Dewpoint Depression Visibility Wind Speed Wind Dir Waves Ship Positions

Forseti

Last reported at 2017-Jan-17 20:34 UTC. Time now 2017-Jan-17 21:29 UTC.
Position N 59°53' E 030°12'.

Length 85 m; draft 5.8 m.

Type: Cargo ship. MMSI: 304010297.

Date/timePositionNaut miles runAvg speedWind from/ knotsBaromVisibWave heightAir tempDewpointWater temp
2017-Jan-17 20:34N 59°53' E 030°12'0 0.0
2017-Jan-17 19:33N 59°53' E 030°12'0 0.0
2017-Jan-17 18:34N 59°53' E 030°13'3 3.5
2017-Jan-17 17:33N 59°54' E 030°06'9 8.8
2017-Jan-17 16:34N 59°57' E 029°50'  
2017-Jan-14 04:32N 60°02' E 029°08'7 7.1
2017-Jan-14 03:33N 60°01' E 028°54'34 8.4
2017-Jan-13 23:33N 60°10' E 027°49'9 8.6
2017-Jan-13 22:33N 60°06' E 027°33'26 8.5
2017-Jan-13 19:33N 59°59' E 026°44'98 8.9
2017-Jan-13 08:31N 59°30' E 023°38'378 9.9
2017-Jan-11 18:12N 55°24' E 014°44'7 9.9
2017-Jan-11 17:33N 55°20' E 014°35'10 9.7
2017-Jan-11 16:32N 55°12' E 014°24'9 9.4
2017-Jan-11 15:33N 55°05' E 014°14'13 8.9
2017-Jan-11 14:03N 54°57' E 013°56'4 8.9
2017-Jan-11 13:33N 54°56' E 013°48'59 9.5
2017-Jan-11 07:17N 54°29' E 012°16'7 9.8
2017-Jan-11 06:33N 54°24' E 012°08'21 9.9
2017-Jan-11 04:23N 54°28' E 011°32'810.0
2017-Jan-11 03:34N 54°32' E 011°19'10 9.8
2017-Jan-11 02:33N 54°35' E 011°03'1010.0
2017-Jan-11 01:34N 54°40' E 010°48'1010.4
2017-Jan-11 00:33N 54°45' E 010°32'  

Dump ship's entire track history